sensor_id;sensor_type;location;lat;lon;timestamp;temperature;humidity
58102;HTU21D;52034;51.926;6.320;2024-02-21T00:00:15;8.90;85.00
58102;HTU21D;52034;51.926;6.320;2024-02-21T00:01:16;8.90;85.16
58102;HTU21D;52034;51.926;6.320;2024-02-21T00:02:18;8.92;84.94
58102;HTU21D;52034;51.926;6.320;2024-02-21T00:03:20;8.90;84.89
58102;HTU21D;52034;51.926;6.320;2024-02-21T00:04:22;8.91;84.90
58102;HTU21D;52034;51.926;6.320;2024-02-21T00:05:23;8.89;85.09
58102;HTU21D;52034;51.926;6.320;2024-02-21T00:06:25;8.86;85.02
58102;HTU21D;52034;51.926;6.320;2024-02-21T00:07:27;8.89;85.24
58102;HTU21D;52034;51.926;6.320;2024-02-21T00:08:29;8.87;85.06
58102;HTU21D;52034;51.926;6.320;2024-02-21T00:09:31;8.81;85.24
58102;HTU21D;52034;51.926;6.320;2024-02-21T00:10:32;8.83;85.23
58102;HTU21D;52034;51.926;6.320;2024-02-21T00:11:34;8.85;85.21
58102;HTU21D;52034;51.926;6.320;2024-02-21T00:12:36;8.86;85.20
58102;HTU21D;52034;51.926;6.320;2024-02-21T00:13:37;8.80;85.30
58102;HTU21D;52034;51.926;6.320;2024-02-21T00:14:39;8.83;85.41
58102;HTU21D;52034;51.926;6.320;2024-02-21T00:15:41;8.83;85.45
58102;HTU21D;52034;51.926;6.320;2024-02-21T00:16:43;8.82;85.23
58102;HTU21D;52034;51.926;6.320;2024-02-21T00:17:45;8.82;85.29
58102;HTU21D;52034;51.926;6.320;2024-02-21T00:18:46;8.83;85.36
58102;HTU21D;52034;51.926;6.320;2024-02-21T00:19:48;8.79;85.45
58102;HTU21D;52034;51.926;6.320;2024-02-21T00:20:49;8.82;85.38
58102;HTU21D;52034;51.926;6.320;2024-02-21T00:21:51;8.80;85.51
58102;HTU21D;52034;51.926;6.320;2024-02-21T00:22:53;8.83;85.44
58102;HTU21D;52034;51.926;6.320;2024-02-21T00:23:54;8.80;85.52
58102;HTU21D;52034;51.926;6.320;2024-02-21T00:24:56;8.76;85.73
58102;HTU21D;52034;51.926;6.320;2024-02-21T00:25:59;8.76;85.59
58102;HTU21D;52034;51.926;6.320;2024-02-21T00:27:01;8.76;85.69
58102;HTU21D;52034;51.926;6.320;2024-02-21T00:28:03;8.76;85.64
58102;HTU21D;52034;51.926;6.320;2024-02-21T00:29:04;8.76;85.51
58102;HTU21D;52034;51.926;6.320;2024-02-21T00:30:09;8.75;85.55
58102;HTU21D;52034;51.926;6.320;2024-02-21T00:31:11;8.71;85.67
58102;HTU21D;52034;51.926;6.320;2024-02-21T00:32:12;8.68;86.08
58102;HTU21D;52034;51.926;6.320;2024-02-21T00:33:14;8.70;85.79
58102;HTU21D;52034;51.926;6.320;2024-02-21T00:34:16;8.71;85.93
58102;HTU21D;52034;51.926;6.320;2024-02-21T00:35:18;8.74;85.97
58102;HTU21D;52034;51.926;6.320;2024-02-21T00:36:20;8.73;85.83
58102;HTU21D;52034;51.926;6.320;2024-02-21T00:37:21;8.77;85.74
58102;HTU21D;52034;51.926;6.320;2024-02-21T00:38:23;8.73;85.96
58102;HTU21D;52034;51.926;6.320;2024-02-21T00:39:24;8.74;85.75
58102;HTU21D;52034;51.926;6.320;2024-02-21T00:40:26;8.78;85.74
58102;HTU21D;52034;51.926;6.320;2024-02-21T00:41:27;8.77;85.61
58102;HTU21D;52034;51.926;6.320;2024-02-21T00:42:29;8.80;85.66
58102;HTU21D;52034;51.926;6.320;2024-02-21T00:43:31;8.80;85.57
58102;HTU21D;52034;51.926;6.320;2024-02-21T00:44:33;8.82;85.60
58102;HTU21D;52034;51.926;6.320;2024-02-21T00:45:34;8.86;85.43
58102;HTU21D;52034;51.926;6.320;2024-02-21T00:46:36;8.82;85.61
58102;HTU21D;52034;51.926;6.320;2024-02-21T00:47:40;8.79;85.67
58102;HTU21D;52034;51.926;6.320;2024-02-21T00:48:41;8.78;85.67
58102;HTU21D;52034;51.926;6.320;2024-02-21T00:49:43;8.81;85.62
58102;HTU21D;52034;51.926;6.320;2024-02-21T00:50:45;8.80;85.51
58102;HTU21D;52034;51.926;6.320;2024-02-21T00:51:47;8.78;85.68
58102;HTU21D;52034;51.926;6.320;2024-02-21T00:52:48;8.78;85.74
58102;HTU21D;52034;51.926;6.320;2024-02-21T00:53:50;8.78;85.66
58102;HTU21D;52034;51.926;6.320;2024-02-21T00:54:52;8.72;85.77
58102;HTU21D;52034;51.926;6.320;2024-02-21T00:55:55;8.71;85.74
58102;HTU21D;52034;51.926;6.320;2024-02-21T00:56:58;8.72;85.84
58102;HTU21D;52034;51.926;6.320;2024-02-21T00:57:59;8.72;85.78
58102;HTU21D;52034;51.926;6.320;2024-02-21T00:59:01;8.74;85.90
58102;HTU21D;52034;51.926;6.320;2024-02-21T01:00:03;8.78;85.48
58102;HTU21D;52034;51.926;6.320;2024-02-21T01:01:05;8.76;85.67
58102;HTU21D;52034;51.926;6.320;2024-02-21T01:02:06;8.73;85.93
58102;HTU21D;52034;51.926;6.320;2024-02-21T01:03:08;8.74;85.50
58102;HTU21D;52034;51.926;6.320;2024-02-21T01:04:10;8.77;85.52
58102;HTU21D;52034;51.926;6.320;2024-02-21T01:05:11;8.74;85.59
58102;HTU21D;52034;51.926;6.320;2024-02-21T01:06:13;8.75;85.75
58102;HTU21D;52034;51.926;6.320;2024-02-21T01:07:15;8.71;85.94
58102;HTU21D;52034;51.926;6.320;2024-02-21T01:08:16;8.73;85.87
58102;HTU21D;52034;51.926;6.320;2024-02-21T01:09:19;8.74;85.87
58102;HTU21D;52034;51.926;6.320;2024-02-21T01:10:20;8.73;85.81
58102;HTU21D;52034;51.926;6.320;2024-02-21T01:11:22;8.75;85.89
58102;HTU21D;52034;51.926;6.320;2024-02-21T01:12:24;8.75;86.16
58102;HTU21D;52034;51.926;6.320;2024-02-21T01:13:26;8.76;85.96
58102;HTU21D;52034;51.926;6.320;2024-02-21T01:14:27;8.73;86.05
58102;HTU21D;52034;51.926;6.320;2024-02-21T01:15:29;8.73;85.85
58102;HTU21D;52034;51.926;6.320;2024-02-21T01:16:30;8.74;85.79
58102;HTU21D;52034;51.926;6.320;2024-02-21T01:17:32;8.76;85.70
58102;HTU21D;52034;51.926;6.320;2024-02-21T01:18:34;8.75;85.82
58102;HTU21D;52034;51.926;6.320;2024-02-21T01:19:38;8.77;85.74
58102;HTU21D;52034;51.926;6.320;2024-02-21T01:20:40;8.75;85.72
58102;HTU21D;52034;51.926;6.320;2024-02-21T01:21:41;8.72;86.02
58102;HTU21D;52034;51.926;6.320;2024-02-21T01:22:43;8.73;85.84
58102;HTU21D;52034;51.926;6.320;2024-02-21T01:23:45;8.76;85.74
58102;HTU21D;52034;51.926;6.320;2024-02-21T01:24:46;8.74;85.87
58102;HTU21D;52034;51.926;6.320;2024-02-21T01:25:48;8.79;85.51
58102;HTU21D;52034;51.926;6.320;2024-02-21T01:26:49;8.76;85.43
58102;HTU21D;52034;51.926;6.320;2024-02-21T01:27:51;8.78;85.53
58102;HTU21D;52034;51.926;6.320;2024-02-21T01:28:53;8.78;85.61
58102;HTU21D;52034;51.926;6.320;2024-02-21T01:29:54;8.78;85.52
58102;HTU21D;52034;51.926;6.320;2024-02-21T01:30:56;8.76;85.64
58102;HTU21D;52034;51.926;6.320;2024-02-21T01:31:58;8.79;85.41
58102;HTU21D;52034;51.926;6.320;2024-02-21T01:33:00;8.74;85.73
58102;HTU21D;52034;51.926;6.320;2024-02-21T01:34:02;8.73;85.80
58102;HTU21D;52034;51.926;6.320;2024-02-21T01:35:03;8.77;85.61
58102;HTU21D;52034;51.926;6.320;2024-02-21T01:36:05;8.79;85.57
58102;HTU21D;52034;51.926;6.320;2024-02-21T01:37:10;8.79;85.56
58102;HTU21D;52034;51.926;6.320;2024-02-21T01:38:12;8.80;85.48
58102;HTU21D;52034;51.926;6.320;2024-02-21T01:39:14;8.83;85.31
58102;HTU21D;52034;51.926;6.320;2024-02-21T01:40:15;8.81;85.32
58102;HTU21D;52034;51.926;6.320;2024-02-21T01:41:17;8.81;85.29
58102;HTU21D;52034;51.926;6.320;2024-02-21T01:42:19;8.85;85.45
58102;HTU21D;52034;51.926;6.320;2024-02-21T01:43:20;8.80;85.51
58102;HTU21D;52034;51.926;6.320;2024-02-21T01:44:22;8.87;85.37
58102;HTU21D;52034;51.926;6.320;2024-02-21T01:45:24;8.87;85.19
58102;HTU21D;52034;51.926;6.320;2024-02-21T01:46:25;8.88;85.21
58102;HTU21D;52034;51.926;6.320;2024-02-21T01:47:29;8.83;85.33
58102;HTU21D;52034;51.926;6.320;2024-02-21T01:48:31;8.83;85.44
58102;HTU21D;52034;51.926;6.320;2024-02-21T01:49:33;8.85;85.35
58102;HTU21D;52034;51.926;6.320;2024-02-21T01:50:35;8.83;85.20
58102;HTU21D;52034;51.926;6.320;2024-02-21T01:51:37;8.90;85.16
58102;HTU21D;52034;51.926;6.320;2024-02-21T01:52:39;8.90;85.22
58102;HTU21D;52034;51.926;6.320;2024-02-21T01:53:42;8.87;85.13
58102;HTU21D;52034;51.926;6.320;2024-02-21T01:54:44;8.89;85.19
58102;HTU21D;52034;51.926;6.320;2024-02-21T01:55:47;8.88;85.38
58102;HTU21D;52034;51.926;6.320;2024-02-21T01:56:49;8.87;85.02
58102;HTU21D;52034;51.926;6.320;2024-02-21T01:57:51;8.90;85.00
58102;HTU21D;52034;51.926;6.320;2024-02-21T01:58:52;8.86;85.38
58102;HTU21D;52034;51.926;6.320;2024-02-21T01:59:54;8.87;85.09
58102;HTU21D;52034;51.926;6.320;2024-02-21T02:00:56;8.86;85.40
58102;HTU21D;52034;51.926;6.320;2024-02-21T02:01:58;8.88;85.41
58102;HTU21D;52034;51.926;6.320;2024-02-21T02:03:00;8.89;85.16
58102;HTU21D;52034;51.926;6.320;2024-02-21T02:04:01;8.91;85.16
58102;HTU21D;52034;51.926;6.320;2024-02-21T02:05:03;8.91;85.15
58102;HTU21D;52034;51.926;6.320;2024-02-21T02:06:05;8.87;85.28
58102;HTU21D;52034;51.926;6.320;2024-02-21T02:07:10;8.87;85.29
58102;HTU21D;52034;51.926;6.320;2024-02-21T02:08:13;8.86;85.43
58102;HTU21D;52034;51.926;6.320;2024-02-21T02:09:15;8.85;85.26
58102;HTU21D;52034;51.926;6.320;2024-02-21T02:10:16;8.88;85.37
58102;HTU21D;52034;51.926;6.320;2024-02-21T02:11:18;8.80;85.51
58102;HTU21D;52034;51.926;6.320;2024-02-21T02:12:19;8.81;85.29
58102;HTU21D;52034;51.926;6.320;2024-02-21T02:13:21;8.85;85.26
58102;HTU21D;52034;51.926;6.320;2024-02-21T02:14:23;8.86;85.34
58102;HTU21D;52034;51.926;6.320;2024-02-21T02:15:24;8.87;85.31
58102;HTU21D;52034;51.926;6.320;2024-02-21T02:16:26;8.80;85.43
58102;HTU21D;52034;51.926;6.320;2024-02-21T02:17:27;8.83;85.22
58102;HTU21D;52034;51.926;6.320;2024-02-21T02:18:29;8.86;85.22
58102;HTU21D;52034;51.926;6.320;2024-02-21T02:19:31;8.87;85.30
58102;HTU21D;52034;51.926;6.320;2024-02-21T02:20:32;8.82;85.55
58102;HTU21D;52034;51.926;6.320;2024-02-21T02:21:34;8.79;85.89
58102;HTU21D;52034;51.926;6.320;2024-02-21T02:22:38;8.80;85.74
58102;HTU21D;52034;51.926;6.320;2024-02-21T02:23:40;8.81;85.49
58102;HTU21D;52034;51.926;6.320;2024-02-21T02:24:42;8.86;85.13
58102;HTU21D;52034;51.926;6.320;2024-02-21T02:25:44;8.82;85.34
58102;HTU21D;52034;51.926;6.320;2024-02-21T02:26:47;8.88;84.93
58102;HTU21D;52034;51.926;6.320;2024-02-21T02:27:48;8.86;85.29
58102;HTU21D;52034;51.926;6.320;2024-02-21T02:28:50;8.86;85.54
58102;HTU21D;52034;51.926;6.320;2024-02-21T02:29:51;8.80;85.80
58102;HTU21D;52034;51.926;6.320;2024-02-21T02:30:53;8.85;84.94
58102;HTU21D;52034;51.926;6.320;2024-02-21T02:31:56;8.85;85.22
58102;HTU21D;52034;51.926;6.320;2024-02-21T02:32:57;8.83;85.20
58102;HTU21D;52034;51.926;6.320;2024-02-21T02:33:59;8.81;85.29
58102;HTU21D;52034;51.926;6.320;2024-02-21T02:35:01;8.85;85.48
58102;HTU21D;52034;51.926;6.320;2024-02-21T02:36:02;8.85;85.14
58102;HTU21D;52034;51.926;6.320;2024-02-21T02:37:04;8.93;84.60
58102;HTU21D;52034;51.926;6.320;2024-02-21T02:38:06;8.92;84.80
58102;HTU21D;52034;51.926;6.320;2024-02-21T02:39:07;8.89;85.09
58102;HTU21D;52034;51.926;6.320;2024-02-21T02:40:09;8.85;84.93
58102;HTU21D;52034;51.926;6.320;2024-02-21T02:41:11;8.85;85.27
58102;HTU21D;52034;51.926;6.320;2024-02-21T02:42:12;8.82;85.32
58102;HTU21D;52034;51.926;6.320;2024-02-21T02:43:14;8.89;85.25
58102;HTU21D;52034;51.926;6.320;2024-02-21T02:44:15;8.87;85.07
58102;HTU21D;52034;51.926;6.320;2024-02-21T02:45:18;8.89;85.31
58102;HTU21D;52034;51.926;6.320;2024-02-21T02:46:19;8.87;85.12
58102;HTU21D;52034;51.926;6.320;2024-02-21T02:47:21;8.87;85.27
58102;HTU21D;52034;51.926;6.320;2024-02-21T02:48:22;8.90;84.98
58102;HTU21D;52034;51.926;6.320;2024-02-21T02:49:24;8.86;85.14
58102;HTU21D;52034;51.926;6.320;2024-02-21T02:50:26;8.82;85.10
58102;HTU21D;52034;51.926;6.320;2024-02-21T02:51:28;8.78;85.44
58102;HTU21D;52034;51.926;6.320;2024-02-21T02:52:30;8.79;85.41
58102;HTU21D;52034;51.926;6.320;2024-02-21T02:53:31;8.81;85.22
58102;HTU21D;52034;51.926;6.320;2024-02-21T02:54:33;8.86;85.06
58102;HTU21D;52034;51.926;6.320;2024-02-21T02:55:34;8.85;85.06
58102;HTU21D;52034;51.926;6.320;2024-02-21T02:56:37;8.86;85.13
58102;HTU21D;52034;51.926;6.320;2024-02-21T02:57:38;8.88;84.60
58102;HTU21D;52034;51.926;6.320;2024-02-21T02:58:40;8.88;84.98
58102;HTU21D;52034;51.926;6.320;2024-02-21T02:59:42;8.90;84.59
58102;HTU21D;52034;51.926;6.320;2024-02-21T03:00:43;8.93;84.61
58102;HTU21D;52034;51.926;6.320;2024-02-21T03:01:45;8.97;84.41
58102;HTU21D;52034;51.926;6.320;2024-02-21T03:02:48;8.94;84.37
58102;HTU21D;52034;51.926;6.320;2024-02-21T03:03:49;8.92;84.73
58102;HTU21D;52034;51.926;6.320;2024-02-21T03:04:51;8.87;84.93
58102;HTU21D;52034;51.926;6.320;2024-02-21T03:05:53;8.85;84.57
58102;HTU21D;52034;51.926;6.320;2024-02-21T03:06:55;8.83;84.92
58102;HTU21D;52034;51.926;6.320;2024-02-21T03:07:56;8.83;85.16
58102;HTU21D;52034;51.926;6.320;2024-02-21T03:08:58;8.81;84.83
58102;HTU21D;52034;51.926;6.320;2024-02-21T03:10:01;8.86;84.94
58102;HTU21D;52034;51.926;6.320;2024-02-21T03:11:02;8.85;84.57
58102;HTU21D;52034;51.926;6.320;2024-02-21T03:12:05;8.88;84.82
58102;HTU21D;52034;51.926;6.320;2024-02-21T03:13:07;8.86;84.71
58102;HTU21D;52034;51.926;6.320;2024-02-21T03:14:08;8.82;85.02
58102;HTU21D;52034;51.926;6.320;2024-02-21T03:15:12;8.83;84.59
58102;HTU21D;52034;51.926;6.320;2024-02-21T03:16:16;8.81;84.95
58102;HTU21D;52034;51.926;6.320;2024-02-21T03:17:18;8.85;84.62
58102;HTU21D;52034;51.926;6.320;2024-02-21T03:18:20;8.89;84.45
58102;HTU21D;52034;51.926;6.320;2024-02-21T03:19:21;8.89;84.63
58102;HTU21D;52034;51.926;6.320;2024-02-21T03:20:24;8.86;84.10
58102;HTU21D;52034;51.926;6.320;2024-02-21T03:21:25;8.86;84.18
58102;HTU21D;52034;51.926;6.320;2024-02-21T03:22:27;8.90;84.24
58102;HTU21D;52034;51.926;6.320;2024-02-21T03:23:28;8.93;84.40
58102;HTU21D;52034;51.926;6.320;2024-02-21T03:24:30;8.90;84.57
58102;HTU21D;52034;51.926;6.320;2024-02-21T03:25:32;8.89;84.58
58102;HTU21D;52034;51.926;6.320;2024-02-21T03:26:34;8.86;84.31
58102;HTU21D;52034;51.926;6.320;2024-02-21T03:27:35;8.86;84.16
58102;HTU21D;52034;51.926;6.320;2024-02-21T03:28:37;8.86;84.55
58102;HTU21D;52034;51.926;6.320;2024-02-21T03:29:41;8.82;84.61
58102;HTU21D;52034;51.926;6.320;2024-02-21T03:30:42;8.85;84.45
58102;HTU21D;52034;51.926;6.320;2024-02-21T03:31:44;8.83;84.58
58102;HTU21D;52034;51.926;6.320;2024-02-21T03:32:46;8.85;84.02
58102;HTU21D;52034;51.926;6.320;2024-02-21T03:33:47;8.83;84.33
58102;HTU21D;52034;51.926;6.320;2024-02-21T03:34:49;8.83;84.54
58102;HTU21D;52034;51.926;6.320;2024-02-21T03:35:51;8.81;84.56
58102;HTU21D;52034;51.926;6.320;2024-02-21T03:36:52;8.85;84.07
58102;HTU21D;52034;51.926;6.320;2024-02-21T03:37:54;8.91;84.14
58102;HTU21D;52034;51.926;6.320;2024-02-21T03:38:56;8.88;84.16
58102;HTU21D;52034;51.926;6.320;2024-02-21T03:39:58;8.85;84.59
58102;HTU21D;52034;51.926;6.320;2024-02-21T03:40:59;8.85;84.44
58102;HTU21D;52034;51.926;6.320;2024-02-21T03:42:01;8.86;84.62
58102;HTU21D;52034;51.926;6.320;2024-02-21T03:43:06;8.89;84.26
58102;HTU21D;52034;51.926;6.320;2024-02-21T03:44:07;8.87;84.39
58102;HTU21D;52034;51.926;6.320;2024-02-21T03:45:09;8.86;84.24
58102;HTU21D;52034;51.926;6.320;2024-02-21T03:46:11;8.90;84.30
58102;HTU21D;52034;51.926;6.320;2024-02-21T03:47:12;8.93;84.16
58102;HTU21D;52034;51.926;6.320;2024-02-21T03:48:14;8.93;84.01
58102;HTU21D;52034;51.926;6.320;2024-02-21T03:49:16;8.90;84.10
58102;HTU21D;52034;51.926;6.320;2024-02-21T03:50:17;8.92;84.06
58102;HTU21D;52034;51.926;6.320;2024-02-21T03:51:19;8.92;83.87
58102;HTU21D;52034;51.926;6.320;2024-02-21T03:52:21;8.89;84.32
58102;HTU21D;52034;51.926;6.320;2024-02-21T03:53:23;8.85;84.00
58102;HTU21D;52034;51.926;6.320;2024-02-21T03:54:24;8.89;84.36
58102;HTU21D;52034;51.926;6.320;2024-02-21T03:55:26;8.87;84.30
58102;HTU21D;52034;51.926;6.320;2024-02-21T03:56:28;8.93;83.94
58102;HTU21D;52034;51.926;6.320;2024-02-21T03:57:29;8.92;84.19
58102;HTU21D;52034;51.926;6.320;2024-02-21T03:58:31;8.92;84.05
58102;HTU21D;52034;51.926;6.320;2024-02-21T03:59:32;8.90;84.31
58102;HTU21D;52034;51.926;6.320;2024-02-21T04:00:34;8.87;84.28
58102;HTU21D;52034;51.926;6.320;2024-02-21T04:01:36;8.87;84.32
58102;HTU21D;52034;51.926;6.320;2024-02-21T04:02:38;8.86;84.45
58102;HTU21D;52034;51.926;6.320;2024-02-21T04:03:39;8.87;84.36
58102;HTU21D;52034;51.926;6.320;2024-02-21T04:04:44;8.91;84.48
58102;HTU21D;52034;51.926;6.320;2024-02-21T04:05:49;8.92;84.25
58102;HTU21D;52034;51.926;6.320;2024-02-21T04:06:52;8.83;84.26
58102;HTU21D;52034;51.926;6.320;2024-02-21T04:07:53;8.85;84.10
58102;HTU21D;52034;51.926;6.320;2024-02-21T04:08:56;8.86;84.64
58102;HTU21D;52034;51.926;6.320;2024-02-21T04:09:57;8.83;84.35
58102;HTU21D;52034;51.926;6.320;2024-02-21T04:10:59;8.89;83.97
58102;HTU21D;52034;51.926;6.320;2024-02-21T04:12:01;8.90;83.88
58102;HTU21D;52034;51.926;6.320;2024-02-21T04:13:03;8.89;84.11
58102;HTU21D;52034;51.926;6.320;2024-02-21T04:14:05;8.89;84.10
58102;HTU21D;52034;51.926;6.320;2024-02-21T04:15:07;8.82;84.22
58102;HTU21D;52034;51.926;6.320;2024-02-21T04:16:08;8.86;84.13
58102;HTU21D;52034;51.926;6.320;2024-02-21T04:17:10;8.86;84.61
58102;HTU21D;52034;51.926;6.320;2024-02-21T04:18:12;8.87;84.04
58102;HTU21D;52034;51.926;6.320;2024-02-21T04:19:13;8.88;84.15
58102;HTU21D;52034;51.926;6.320;2024-02-21T04:20:15;8.89;83.77
58102;HTU21D;52034;51.926;6.320;2024-02-21T04:21:17;8.88;83.76
58102;HTU21D;52034;51.926;6.320;2024-02-21T04:22:19;8.89;84.09
58102;HTU21D;52034;51.926;6.320;2024-02-21T04:23:20;8.89;84.08
58102;HTU21D;52034;51.926;6.320;2024-02-21T04:24:22;8.90;84.00
58102;HTU21D;52034;51.926;6.320;2024-02-21T04:25:24;8.92;84.05
58102;HTU21D;52034;51.926;6.320;2024-02-21T04:26:25;8.92;84.13
58102;HTU21D;52034;51.926;6.320;2024-02-21T04:27:27;8.91;83.73
58102;HTU21D;52034;51.926;6.320;2024-02-21T04:28:29;8.86;83.89
58102;HTU21D;52034;51.926;6.320;2024-02-21T04:29:31;8.90;83.99
58102;HTU21D;52034;51.926;6.320;2024-02-21T04:30:32;8.89;84.14
58102;HTU21D;52034;51.926;6.320;2024-02-21T04:31:34;8.87;84.00
58102;HTU21D;52034;51.926;6.320;2024-02-21T04:32:36;8.89;84.11
58102;HTU21D;52034;51.926;6.320;2024-02-21T04:33:37;8.88;84.20
58102;HTU21D;52034;51.926;6.320;2024-02-21T04:34:40;8.90;84.13
58102;HTU21D;52034;51.926;6.320;2024-02-21T04:35:42;8.91;83.71
58102;HTU21D;52034;51.926;6.320;2024-02-21T04:36:44;8.91;83.69
58102;HTU21D;52034;51.926;6.320;2024-02-21T04:37:46;8.89;83.87
58102;HTU21D;52034;51.926;6.320;2024-02-21T04:38:47;8.89;83.74
58102;HTU21D;52034;51.926;6.320;2024-02-21T04:39:50;8.90;83.74
58102;HTU21D;52034;51.926;6.320;2024-02-21T04:40:52;8.90;83.81
58102;HTU21D;52034;51.926;6.320;2024-02-21T04:41:54;8.91;83.67
58102;HTU21D;52034;51.926;6.320;2024-02-21T04:42:55;8.94;83.69
58102;HTU21D;52034;51.926;6.320;2024-02-21T04:43:57;8.87;83.71
58102;HTU21D;52034;51.926;6.320;2024-02-21T04:44:58;8.89;83.40
58102;HTU21D;52034;51.926;6.320;2024-02-21T04:46:00;8.92;83.53
58102;HTU21D;52034;51.926;6.320;2024-02-21T04:47:02;8.90;83.62
58102;HTU21D;52034;51.926;6.320;2024-02-21T04:48:05;8.91;83.79
58102;HTU21D;52034;51.926;6.320;2024-02-21T04:49:06;8.91;83.85
58102;HTU21D;52034;51.926;6.320;2024-02-21T04:50:08;8.91;83.41
58102;HTU21D;52034;51.926;6.320;2024-02-21T04:51:11;8.98;83.49
58102;HTU21D;52034;51.926;6.320;2024-02-21T04:52:12;8.96;83.55
58102;HTU21D;52034;51.926;6.320;2024-02-21T04:53:14;8.93;83.49
58102;HTU21D;52034;51.926;6.320;2024-02-21T04:54:15;8.92;83.73
58102;HTU21D;52034;51.926;6.320;2024-02-21T04:55:17;8.93;83.90
58102;HTU21D;52034;51.926;6.320;2024-02-21T04:56:19;8.91;83.76
58102;HTU21D;52034;51.926;6.320;2024-02-21T04:57:21;8.94;83.87
58102;HTU21D;52034;51.926;6.320;2024-02-21T04:58:22;8.94;83.61
58102;HTU21D;52034;51.926;6.320;2024-02-21T04:59:24;8.93;83.78
58102;HTU21D;52034;51.926;6.320;2024-02-21T05:00:25;8.95;83.51
58102;HTU21D;52034;51.926;6.320;2024-02-21T05:01:28;8.89;83.78
58102;HTU21D;52034;51.926;6.320;2024-02-21T05:02:29;8.90;83.68
58102;HTU21D;52034;51.926;6.320;2024-02-21T05:03:31;8.94;83.74
58102;HTU21D;52034;51.926;6.320;2024-02-21T05:04:33;8.91;83.65
58102;HTU21D;52034;51.926;6.320;2024-02-21T05:05:35;8.92;83.84
58102;HTU21D;52034;51.926;6.320;2024-02-21T05:06:41;8.91;83.70
58102;HTU21D;52034;51.926;6.320;2024-02-21T05:07:43;8.90;83.83
58102;HTU21D;52034;51.926;6.320;2024-02-21T05:08:44;8.91;83.67
58102;HTU21D;52034;51.926;6.320;2024-02-21T05:09:46;8.91;83.47
58102;HTU21D;52034;51.926;6.320;2024-02-21T05:10:48;8.91;83.60
58102;HTU21D;52034;51.926;6.320;2024-02-21T05:11:49;8.87;83.27
58102;HTU21D;52034;51.926;6.320;2024-02-21T05:12:51;8.88;83.32
58102;HTU21D;52034;51.926;6.320;2024-02-21T05:13:52;8.86;83.39
58102;HTU21D;52034;51.926;6.320;2024-02-21T05:14:54;8.89;83.53
58102;HTU21D;52034;51.926;6.320;2024-02-21T05:15:56;8.87;83.65
58102;HTU21D;52034;51.926;6.320;2024-02-21T05:16:57;8.88;83.74
58102;HTU21D;52034;51.926;6.320;2024-02-21T05:17:59;8.83;83.19
58102;HTU21D;52034;51.926;6.320;2024-02-21T05:19:01;8.83;83.68
58102;HTU21D;52034;51.926;6.320;2024-02-21T05:20:02;8.85;83.74
58102;HTU21D;52034;51.926;6.320;2024-02-21T05:21:05;8.91;83.64
58102;HTU21D;52034;51.926;6.320;2024-02-21T05:22:06;8.85;83.58
58102;HTU21D;52034;51.926;6.320;2024-02-21T05:23:08;8.83;83.37
58102;HTU21D;52034;51.926;6.320;2024-02-21T05:24:10;8.86;83.97
58102;HTU21D;52034;51.926;6.320;2024-02-21T05:25:12;8.83;83.61
58102;HTU21D;52034;51.926;6.320;2024-02-21T05:26:19;8.85;83.65
58102;HTU21D;52034;51.926;6.320;2024-02-21T05:27:21;8.91;83.45
58102;HTU21D;52034;51.926;6.320;2024-02-21T05:28:22;8.90;83.26
58102;HTU21D;52034;51.926;6.320;2024-02-21T05:29:24;8.88;83.52
58102;HTU21D;52034;51.926;6.320;2024-02-21T05:30:26;8.92;83.22
58102;HTU21D;52034;51.926;6.320;2024-02-21T05:31:42;8.91;83.49
58102;HTU21D;52034;51.926;6.320;2024-02-21T05:32:44;8.97;83.53
58102;HTU21D;52034;51.926;6.320;2024-02-21T05:33:46;8.94;83.01
58102;HTU21D;52034;51.926;6.320;2024-02-21T05:34:48;8.93;83.13
58102;HTU21D;52034;51.926;6.320;2024-02-21T05:35:50;8.94;83.61
58102;HTU21D;52034;51.926;6.320;2024-02-21T05:36:52;8.93;83.14
58102;HTU21D;52034;51.926;6.320;2024-02-21T05:37:54;8.96;83.28
58102;HTU21D;52034;51.926;6.320;2024-02-21T05:38:56;8.97;83.23
58102;HTU21D;52034;51.926;6.320;2024-02-21T05:39:59;8.92;83.39
58102;HTU21D;52034;51.926;6.320;2024-02-21T05:41:00;8.91;83.49
58102;HTU21D;52034;51.926;6.320;2024-02-21T05:42:02;8.93;83.60
58102;HTU21D;52034;51.926;6.320;2024-02-21T05:43:04;8.93;83.39
58102;HTU21D;52034;51.926;6.320;2024-02-21T05:44:05;8.90;82.97
58102;HTU21D;52034;51.926;6.320;2024-02-21T05:45:08;8.89;82.96
58102;HTU21D;52034;51.926;6.320;2024-02-21T05:46:09;8.92;83.25
58102;HTU21D;52034;51.926;6.320;2024-02-21T05:47:11;8.93;83.36
58102;HTU21D;52034;51.926;6.320;2024-02-21T05:48:14;8.92;83.44
58102;HTU21D;52034;51.926;6.320;2024-02-21T05:49:16;8.92;83.51
58102;HTU21D;52034;51.926;6.320;2024-02-21T05:50:18;8.89;83.45
58102;HTU21D;52034;51.926;6.320;2024-02-21T05:51:20;8.87;83.49
58102;HTU21D;52034;51.926;6.320;2024-02-21T05:52:22;8.87;83.49
58102;HTU21D;52034;51.926;6.320;2024-02-21T05:53:23;8.91;83.34
58102;HTU21D;52034;51.926;6.320;2024-02-21T05:54:25;8.89;83.67
58102;HTU21D;52034;51.926;6.320;2024-02-21T05:55:27;8.89;83.29
58102;HTU21D;52034;51.926;6.320;2024-02-21T05:56:29;8.85;83.66
58102;HTU21D;52034;51.926;6.320;2024-02-21T05:57:30;8.79;83.80
58102;HTU21D;52034;51.926;6.320;2024-02-21T05:58:32;8.80;84.03
58102;HTU21D;52034;51.926;6.320;2024-02-21T05:59:34;8.78;83.86
58102;HTU21D;52034;51.926;6.320;2024-02-21T06:00:38;8.76;84.07
58102;HTU21D;52034;51.926;6.320;2024-02-21T06:01:39;8.77;83.83
58102;HTU21D;52034;51.926;6.320;2024-02-21T06:02:41;8.76;84.03
58102;HTU21D;52034;51.926;6.320;2024-02-21T06:03:43;8.79;83.60
58102;HTU21D;52034;51.926;6.320;2024-02-21T06:04:45;8.80;83.75
58102;HTU21D;52034;51.926;6.320;2024-02-21T06:05:47;8.82;83.62
58102;HTU21D;52034;51.926;6.320;2024-02-21T06:06:49;8.77;84.04
58102;HTU21D;52034;51.926;6.320;2024-02-21T06:07:50;8.79;83.93
58102;HTU21D;52034;51.926;6.320;2024-02-21T06:08:52;8.75;83.61
58102;HTU21D;52034;51.926;6.320;2024-02-21T06:09:54;8.71;84.04
58102;HTU21D;52034;51.926;6.320;2024-02-21T06:10:55;8.78;84.10
58102;HTU21D;52034;51.926;6.320;2024-02-21T06:11:57;8.75;84.37
58102;HTU21D;52034;51.926;6.320;2024-02-21T06:12:59;8.71;84.26
58102;HTU21D;52034;51.926;6.320;2024-02-21T06:14:00;8.75;83.71
58102;HTU21D;52034;51.926;6.320;2024-02-21T06:15:02;8.74;83.85
58102;HTU21D;52034;51.926;6.320;2024-02-21T06:16:04;8.76;83.99
58102;HTU21D;52034;51.926;6.320;2024-02-21T06:17:06;8.74;84.03
58102;HTU21D;52034;51.926;6.320;2024-02-21T06:18:07;8.73;84.39
58102;HTU21D;52034;51.926;6.320;2024-02-21T06:19:09;8.75;84.39
58102;HTU21D;52034;51.926;6.320;2024-02-21T06:20:11;8.76;84.26
58102;HTU21D;52034;51.926;6.320;2024-02-21T06:21:13;8.75;84.32
58102;HTU21D;52034;51.926;6.320;2024-02-21T06:22:15;8.74;84.32
58102;HTU21D;52034;51.926;6.320;2024-02-21T06:23:16;8.73;84.25
58102;HTU21D;52034;51.926;6.320;2024-02-21T06:24:19;8.72;84.48
58102;HTU21D;52034;51.926;6.320;2024-02-21T06:25:20;8.75;84.32
58102;HTU21D;52034;51.926;6.320;2024-02-21T06:26:22;8.79;84.16
58102;HTU21D;52034;51.926;6.320;2024-02-21T06:27:23;8.80;84.19
58102;HTU21D;52034;51.926;6.320;2024-02-21T06:28:25;8.74;84.55
58102;HTU21D;52034;51.926;6.320;2024-02-21T06:29:28;8.72;84.25
58102;HTU21D;52034;51.926;6.320;2024-02-21T06:30:29;8.75;84.33